Depesze METAR lotnisk w Polsce

METAR – format kodowanego raportu o pogodzie używany w meteorologii lotniczej i prognozie pogody. METAR jest akronimem od ang. Meteorological Aerodrome Report. Typowy METAR zawiera informację o temperaturze, ciśnieniu, temperaturze punktu rosy, sile i kierunku wiatru, opadzie, pokrywie chmur, wysokości podstawy chmur, widzialności, lecz może zawierać też inne informacje (np. stan dróg startowych).

Warszawa-Okęcie (EPWA)

METAR = EPWA 291430Z 30010KT 250V320 CAVOK 27/16 Q1013 NOSIG

STACJA......... EPWA - Warszawa-Okęcie (WAW)
POMIAR......... Mon Aug 29, 16:30 CEST
WIATR.......... zachodni północno-zachodni (WNW) z prędkością 19 km/h
WIDZIALNOŚĆ.... powyżej 10 kilometrów
CHMURY......... bezchmurne niebo
TEMPERATURA.... 27°C
T.PUNKTU ROSY.. 16°C
WILGOTNOŚĆ..... 51%
INDEX GORĄCA... 28°C
CIŚNIENIE...... 1013 hPa
PROGNOZA....... bez nagłych zmian w ciągu 2h

Sprawdź też: Prognoza pogody Warszawa

Warszawa-Modlin (EPMO)

METAR = EPMO 291430Z 28016KT CAVOK 27/12 Q1012 =

STACJA......... EPMO - Warszawa-Modlin (WMI)
POMIAR......... Mon Aug 29, 16:30 CEST
WIATR.......... zachodni (W) z prędkością 30 km/h
WIDZIALNOŚĆ.... powyżej 10 kilometrów
CHMURY......... bezchmurne niebo
TEMPERATURA.... 27°C
T.PUNKTU ROSY.. 12°C
WILGOTNOŚĆ..... 39%
CIŚNIENIE...... 1012 hPa

Sprawdź też: Prognoza pogody Nowy Dwór Mazowiecki

Kraków-Balice (EPKK)

METAR = EPKK 291430Z 24012KT 8000 -TSRA SCT036CB 23/18 Q1016

STACJA......... EPKK - Kraków-Balice (KRK)
POMIAR......... Mon Aug 29, 16:30 CEST
WIATR.......... zachodni południowo-zachodni (WSW) z prędkością 22 km/h
WIDZIALNOŚĆ.... 8000 metrów
WARUNKI........ słaby: burza deszcz 
CHMURY......... zachmurzenie małe (3/8-4/8)
TEMPERATURA.... 23°C
T.PUNKTU ROSY.. 18°C
WILGOTNOŚĆ..... 74%
CIŚNIENIE...... 1016 hPa

Sprawdź też: Prognoza pogody Kraków

Łódź-Lublinek (EPLL)

METAR = EPLL 291430Z 26013KT 230V290 CAVOK 25/12 Q1014

STACJA......... EPLL - Łódź-Lublinek (LCJ)
POMIAR......... Mon Aug 29, 16:30 CEST
WIATR.......... zachodni (W) z prędkością 24 km/h
WIDZIALNOŚĆ.... powyżej 10 kilometrów
CHMURY......... bezchmurne niebo
TEMPERATURA.... 25°C
T.PUNKTU ROSY.. 12°C
WILGOTNOŚĆ..... 44%
CIŚNIENIE...... 1014 hPa

Sprawdź też: Prognoza pogody Łódź

Wrocław-Strachowice (EPWR)

METAR = EPWR 291430Z 26006KT CAVOK 24/13 Q1016

STACJA......... EPWR - Wrocław-Strachowice (WRO)
POMIAR......... Mon Aug 29, 16:30 CEST
WIATR.......... zachodni (W) z prędkością 11 km/h
WIDZIALNOŚĆ.... powyżej 10 kilometrów
CHMURY......... bezchmurne niebo
TEMPERATURA.... 24°C
T.PUNKTU ROSY.. 13°C
WILGOTNOŚĆ..... 50%
CIŚNIENIE...... 1016 hPa

Sprawdź też: Prognoza pogody Wrocław

Katowice-Pyrzowice (EPKT)

METAR = EPKT 291430Z 26012KT 230V290 9999 FEW038 25/16 Q1016

STACJA......... EPKT - Katowice-Pyrzowice (KTW)
POMIAR......... Mon Aug 29, 16:30 CEST
WIATR.......... zachodni (W) z prędkością 22 km/h
WIDZIALNOŚĆ.... powyżej 10 kilometrów
CHMURY......... zachmurzenie niewielkie (1/8-2/8)
TEMPERATURA.... 25°C
T.PUNKTU ROSY.. 16°C
WILGOTNOŚĆ..... 57%
CIŚNIENIE...... 1016 hPa

Sprawdź też: Prognoza pogody Katowice

Gdańsk (EPGD)

METAR = EPGD 291430Z 26011KT 230V290 9999 SCT043 20/14 Q1012

STACJA......... EPGD - Gdańsk im. Lecha Wałęsy (GDN)
POMIAR......... Mon Aug 29, 16:30 CEST
WIATR.......... zachodni (W) z prędkością 20 km/h
WIDZIALNOŚĆ.... powyżej 10 kilometrów
CHMURY......... zachmurzenie małe (3/8-4/8)
TEMPERATURA.... 20°C
T.PUNKTU ROSY.. 14°C
WILGOTNOŚĆ..... 69%
CIŚNIENIE...... 1012 hPa

Sprawdź też: Prognoza pogody Gdańsk

Poznań-Ławica (EPPO)

METAR = EPPO 291430Z 29015KT CAVOK 24/12 Q1015

STACJA......... EPPO - Poznań-Ławica (POZ)
POMIAR......... Mon Aug 29, 16:30 CEST
WIATR.......... zachodni północno-zachodni (WNW) z prędkością 28 km/h
WIDZIALNOŚĆ.... powyżej 10 kilometrów
CHMURY......... bezchmurne niebo
TEMPERATURA.... 24°C
T.PUNKTU ROSY.. 12°C
WILGOTNOŚĆ..... 47%
CIŚNIENIE...... 1015 hPa

Sprawdź też: Prognoza pogody Poznań

Rzeszów-Jasionka (EPRZ)

METAR = EPRZ 291430Z 25010KT 210V290 CAVOK 29/17 Q1014

STACJA......... EPRZ - Rzeszów-Jasionka (RZE)
POMIAR......... Mon Aug 29, 16:30 CEST
WIATR.......... zachodni południowo-zachodni (WSW) z prędkością 19 km/h
WIDZIALNOŚĆ.... powyżej 10 kilometrów
CHMURY......... bezchmurne niebo
TEMPERATURA.... 29°C
T.PUNKTU ROSY.. 17°C
WILGOTNOŚĆ..... 48%
INDEX GORĄCA... 29°C
CIŚNIENIE...... 1014 hPa

Sprawdź też: Prognoza pogody Rzeszów

Szczecin-Goleniów (EPSC)

METAR = EPSC 291430Z 27007KT 9999 FEW024 FEW037CB 17/16 Q1015

STACJA......... EPSC - Szczecin-Goleniów (SZZ)
POMIAR......... Mon Aug 29, 16:30 CEST
WIATR.......... zachodni (W) z prędkością 13 km/h
WIDZIALNOŚĆ.... powyżej 10 kilometrów
CHMURY......... zachmurzenie niewielkie (1/8-2/8)
TEMPERATURA.... 17°C
T.PUNKTU ROSY.. 16°C
WILGOTNOŚĆ..... 94%
CIŚNIENIE...... 1015 hPa

Sprawdź też: Prognoza pogody Szczecin

Lublin-Świdnik (EPLB)

METAR = EPLB 291430Z 26010KT CAVOK 27/18 Q1013 =

STACJA......... EPLB - Lublin-Świdnik (LUZ)
POMIAR......... Mon Aug 29, 16:30 CEST
WIATR.......... zachodni (W) z prędkością 19 km/h
WIDZIALNOŚĆ.... powyżej 10 kilometrów
CHMURY......... bezchmurne niebo
TEMPERATURA.... 27°C
T.PUNKTU ROSY.. 18°C
WILGOTNOŚĆ..... 58%
INDEX GORĄCA... 28°C
CIŚNIENIE...... 1013 hPa

Sprawdź też: Prognoza pogody Lublin

Bydgoszcz-Szwederowo (EPBY)

METAR = EPBY 291430Z 26013KT 230V290 CAVOK 24/13 Q1013 =

STACJA......... EPBY - Bydgoszcz-Szwederowo (BZG)
POMIAR......... Mon Aug 29, 16:30 CEST
WIATR.......... zachodni (W) z prędkością 24 km/h
WIDZIALNOŚĆ.... powyżej 10 kilometrów
CHMURY......... bezchmurne niebo
TEMPERATURA.... 24°C
T.PUNKTU ROSY.. 13°C
WILGOTNOŚĆ..... 50%
CIŚNIENIE...... 1013 hPa

Sprawdź też: Prognoza pogody Bydgoszcz

Zielona Góra-Babimost (EPZG)

METAR = EPZG 291430Z 26009KT 230V320 CAVOK 24/13 Q1015 =

STACJA......... EPZG - Zielona Góra-Babimost (IEG)
POMIAR......... Mon Aug 29, 16:30 CEST
WIATR.......... zachodni (W) z prędkością 17 km/h
WIDZIALNOŚĆ.... powyżej 10 kilometrów
CHMURY......... bezchmurne niebo
TEMPERATURA.... 24°C
T.PUNKTU ROSY.. 13°C
WILGOTNOŚĆ..... 50%
CIŚNIENIE...... 1015 hPa

Sprawdź też: Prognoza pogody Zielona Góra

Szymany Olsztyn-Mazury (EPSY)

METAR = EPSY 291430Z 26011KT 230V300 CAVOK 25/14 Q1012=

STACJA......... EPSY - Olsztyn-Mazury (SZY)
POMIAR......... Mon Aug 29, 16:30 CEST
WIATR.......... zachodni (W) z prędkością 20 km/h
WIDZIALNOŚĆ.... powyżej 10 kilometrów
CHMURY......... bezchmurne niebo
TEMPERATURA.... 25°C
T.PUNKTU ROSY.. 14°C
WILGOTNOŚĆ..... 51%
CIŚNIENIE...... 1012 hPa

Sprawdź też: Prognoza pogody Olsztyn